sensor_id;sensor_type;location;lat;lon;timestamp;P1;durP1;ratioP1;P2;durP2;ratioP2
11522;SDS011;70090;43.208;27.904;2024-03-06T00:02:27;13.50;;;6.43;;
11522;SDS011;70090;43.208;27.904;2024-03-06T00:04:54;13.60;;;6.47;;
11522;SDS011;70090;43.208;27.904;2024-03-06T00:07:21;11.53;;;6.27;;
11522;SDS011;70090;43.208;27.904;2024-03-06T00:09:48;11.40;;;6.10;;
11522;SDS011;70090;43.208;27.904;2024-03-06T00:12:15;11.00;;;5.83;;
11522;SDS011;70090;43.208;27.904;2024-03-06T00:14:43;9.83;;;5.63;;
11522;SDS011;70090;43.208;27.904;2024-03-06T00:17:12;8.63;;;6.10;;
11522;SDS011;70090;43.208;27.904;2024-03-06T00:19:39;10.83;;;6.37;;
11522;SDS011;70090;43.208;27.904;2024-03-06T00:22:06;11.97;;;6.17;;
11522;SDS011;70090;43.208;27.904;2024-03-06T00:24:33;12.80;;;6.30;;
11522;SDS011;70090;43.208;27.904;2024-03-06T00:27:00;12.80;;;6.00;;
11522;SDS011;70090;43.208;27.904;2024-03-06T00:29:29;10.97;;;7.00;;
11522;SDS011;70090;43.208;27.904;2024-03-06T00:31:57;9.70;;;6.87;;
11522;SDS011;70090;43.208;27.904;2024-03-06T00:34:25;12.50;;;7.27;;
11522;SDS011;70090;43.208;27.904;2024-03-06T00:36:52;12.07;;;6.90;;
11522;SDS011;70090;43.208;27.904;2024-03-06T00:39:20;12.60;;;7.53;;
11522;SDS011;70090;43.208;27.904;2024-03-06T00:41:47;11.10;;;6.90;;
11522;SDS011;70090;43.208;27.904;2024-03-06T00:44:15;12.13;;;7.40;;
11522;SDS011;70090;43.208;27.904;2024-03-06T00:46:42;11.67;;;7.00;;
11522;SDS011;70090;43.208;27.904;2024-03-06T00:49:09;14.57;;;7.77;;
11522;SDS011;70090;43.208;27.904;2024-03-06T00:51:37;10.03;;;7.03;;
11522;SDS011;70090;43.208;27.904;2024-03-06T00:54:04;11.40;;;7.23;;
11522;SDS011;70090;43.208;27.904;2024-03-06T00:56:31;12.00;;;8.10;;
11522;SDS011;70090;43.208;27.904;2024-03-06T00:58:58;16.37;;;8.47;;
11522;SDS011;70090;43.208;27.904;2024-03-06T01:01:25;13.63;;;7.97;;
11522;SDS011;70090;43.208;27.904;2024-03-06T01:03:53;15.23;;;8.97;;
11522;SDS011;70090;43.208;27.904;2024-03-06T01:06:20;11.20;;;8.53;;
11522;SDS011;70090;43.208;27.904;2024-03-06T01:08:49;11.10;;;8.10;;
11522;SDS011;70090;43.208;27.904;2024-03-06T01:11:16;16.13;;;9.10;;
11522;SDS011;70090;43.208;27.904;2024-03-06T01:13:43;13.97;;;9.30;;
11522;SDS011;70090;43.208;27.904;2024-03-06T01:16:10;14.33;;;9.30;;
11522;SDS011;70090;43.208;27.904;2024-03-06T01:18:37;15.60;;;9.23;;
11522;SDS011;70090;43.208;27.904;2024-03-06T01:21:04;14.07;;;10.07;;
11522;SDS011;70090;43.208;27.904;2024-03-06T01:23:31;15.67;;;10.30;;
11522;SDS011;70090;43.208;27.904;2024-03-06T01:25:59;15.03;;;10.17;;
11522;SDS011;70090;43.208;27.904;2024-03-06T01:28:26;17.37;;;10.60;;
11522;SDS011;70090;43.208;27.904;2024-03-06T01:30:53;15.20;;;10.63;;
11522;SDS011;70090;43.208;27.904;2024-03-06T01:33:20;18.23;;;11.20;;
11522;SDS011;70090;43.208;27.904;2024-03-06T01:35:48;16.90;;;11.03;;
11522;SDS011;70090;43.208;27.904;2024-03-06T01:38:15;13.40;;;10.50;;
11522;SDS011;70090;43.208;27.904;2024-03-06T01:40:43;17.83;;;11.67;;
11522;SDS011;70090;43.208;27.904;2024-03-06T01:43:19;17.20;;;11.43;;
11522;SDS011;70090;43.208;27.904;2024-03-06T01:45:47;17.83;;;11.77;;
11522;SDS011;70090;43.208;27.904;2024-03-06T01:48:15;19.63;;;11.90;;
11522;SDS011;70090;43.208;27.904;2024-03-06T01:50:43;21.73;;;11.90;;
11522;SDS011;70090;43.208;27.904;2024-03-06T01:53:10;16.70;;;12.20;;
11522;SDS011;70090;43.208;27.904;2024-03-06T01:55:38;19.70;;;11.43;;
11522;SDS011;70090;43.208;27.904;2024-03-06T01:58:05;16.13;;;12.10;;
11522;SDS011;70090;43.208;27.904;2024-03-06T02:00:34;19.13;;;12.67;;
11522;SDS011;70090;43.208;27.904;2024-03-06T02:03:03;19.37;;;12.87;;
11522;SDS011;70090;43.208;27.904;2024-03-06T02:05:30;18.20;;;12.47;;
11522;SDS011;70090;43.208;27.904;2024-03-06T02:07:57;18.33;;;12.40;;
11522;SDS011;70090;43.208;27.904;2024-03-06T02:10:25;17.43;;;11.73;;
11522;SDS011;70090;43.208;27.904;2024-03-06T02:12:52;20.30;;;12.47;;
11522;SDS011;70090;43.208;27.904;2024-03-06T02:15:20;19.13;;;12.47;;
11522;SDS011;70090;43.208;27.904;2024-03-06T02:17:48;18.90;;;12.80;;
11522;SDS011;70090;43.208;27.904;2024-03-06T02:20:16;17.13;;;13.40;;
11522;SDS011;70090;43.208;27.904;2024-03-06T02:22:44;19.17;;;13.00;;
11522;SDS011;70090;43.208;27.904;2024-03-06T02:25:11;18.07;;;11.70;;
11522;SDS011;70090;43.208;27.904;2024-03-06T02:27:40;18.53;;;13.57;;
11522;SDS011;70090;43.208;27.904;2024-03-06T02:30:07;17.73;;;11.97;;
11522;SDS011;70090;43.208;27.904;2024-03-06T02:32:35;19.20;;;11.60;;
11522;SDS011;70090;43.208;27.904;2024-03-06T02:35:02;18.30;;;12.07;;
11522;SDS011;70090;43.208;27.904;2024-03-06T02:37:33;20.20;;;11.97;;
11522;SDS011;70090;43.208;27.904;2024-03-06T02:40:02;15.83;;;12.07;;
11522;SDS011;70090;43.208;27.904;2024-03-06T02:42:32;18.70;;;12.37;;
11522;SDS011;70090;43.208;27.904;2024-03-06T02:44:59;20.50;;;12.77;;
11522;SDS011;70090;43.208;27.904;2024-03-06T02:47:26;19.07;;;12.43;;
11522;SDS011;70090;43.208;27.904;2024-03-06T02:49:53;22.07;;;12.90;;
11522;SDS011;70090;43.208;27.904;2024-03-06T02:52:21;16.80;;;12.50;;
11522;SDS011;70090;43.208;27.904;2024-03-06T02:54:48;17.80;;;12.20;;
11522;SDS011;70090;43.208;27.904;2024-03-06T02:57:16;18.97;;;12.20;;
11522;SDS011;70090;43.208;27.904;2024-03-06T02:59:43;18.67;;;11.60;;
11522;SDS011;70090;43.208;27.904;2024-03-06T03:02:09;17.93;;;12.47;;
11522;SDS011;70090;43.208;27.904;2024-03-06T03:04:36;20.80;;;12.73;;
11522;SDS011;70090;43.208;27.904;2024-03-06T03:07:03;19.80;;;11.77;;
11522;SDS011;70090;43.208;27.904;2024-03-06T03:09:30;19.33;;;12.97;;
11522;SDS011;70090;43.208;27.904;2024-03-06T03:11:57;23.63;;;12.90;;
11522;SDS011;70090;43.208;27.904;2024-03-06T03:14:26;16.80;;;12.03;;
11522;SDS011;70090;43.208;27.904;2024-03-06T03:16:53;18.83;;;12.20;;
11522;SDS011;70090;43.208;27.904;2024-03-06T03:19:20;20.73;;;12.60;;
11522;SDS011;70090;43.208;27.904;2024-03-06T03:21:47;18.43;;;12.67;;
11522;SDS011;70090;43.208;27.904;2024-03-06T03:24:14;20.80;;;13.20;;
11522;SDS011;70090;43.208;27.904;2024-03-06T03:26:41;20.53;;;12.80;;
11522;SDS011;70090;43.208;27.904;2024-03-06T03:29:08;18.87;;;12.53;;
11522;SDS011;70090;43.208;27.904;2024-03-06T03:31:37;21.73;;;12.97;;
11522;SDS011;70090;43.208;27.904;2024-03-06T03:34:04;23.30;;;13.10;;
11522;SDS011;70090;43.208;27.904;2024-03-06T03:36:31;23.00;;;13.00;;
11522;SDS011;70090;43.208;27.904;2024-03-06T03:38:58;20.20;;;13.10;;
11522;SDS011;70090;43.208;27.904;2024-03-06T03:41:25;20.17;;;13.07;;
11522;SDS011;70090;43.208;27.904;2024-03-06T03:43:52;19.20;;;13.53;;
11522;SDS011;70090;43.208;27.904;2024-03-06T03:46:19;19.73;;;12.87;;
11522;SDS011;70090;43.208;27.904;2024-03-06T03:48:48;19.37;;;13.43;;
11522;SDS011;70090;43.208;27.904;2024-03-06T03:51:15;20.27;;;14.07;;
11522;SDS011;70090;43.208;27.904;2024-03-06T03:53:42;19.93;;;14.13;;
11522;SDS011;70090;43.208;27.904;2024-03-06T03:56:09;26.33;;;14.67;;
11522;SDS011;70090;43.208;27.904;2024-03-06T03:58:37;20.80;;;14.37;;
11522;SDS011;70090;43.208;27.904;2024-03-06T04:01:04;21.60;;;13.80;;
11522;SDS011;70090;43.208;27.904;2024-03-06T04:03:31;23.90;;;14.63;;
11522;SDS011;70090;43.208;27.904;2024-03-06T04:06:00;23.53;;;14.03;;
11522;SDS011;70090;43.208;27.904;2024-03-06T04:08:27;23.03;;;14.67;;
11522;SDS011;70090;43.208;27.904;2024-03-06T04:10:54;22.17;;;14.27;;
11522;SDS011;70090;43.208;27.904;2024-03-06T04:13:21;21.83;;;13.93;;
11522;SDS011;70090;43.208;27.904;2024-03-06T04:15:48;20.20;;;14.47;;
11522;SDS011;70090;43.208;27.904;2024-03-06T04:18:15;20.37;;;14.00;;
11522;SDS011;70090;43.208;27.904;2024-03-06T04:20:42;20.83;;;13.57;;
11522;SDS011;70090;43.208;27.904;2024-03-06T04:23:11;18.17;;;13.70;;
11522;SDS011;70090;43.208;27.904;2024-03-06T04:25:38;20.77;;;13.93;;
11522;SDS011;70090;43.208;27.904;2024-03-06T04:28:06;24.43;;;14.40;;
11522;SDS011;70090;43.208;27.904;2024-03-06T04:30:33;20.87;;;14.27;;
11522;SDS011;70090;43.208;27.904;2024-03-06T04:33:00;19.37;;;13.83;;
11522;SDS011;70090;43.208;27.904;2024-03-06T04:35:28;24.93;;;15.37;;
11522;SDS011;70090;43.208;27.904;2024-03-06T04:37:55;18.53;;;14.13;;
11522;SDS011;70090;43.208;27.904;2024-03-06T04:40:24;20.90;;;14.40;;
11522;SDS011;70090;43.208;27.904;2024-03-06T04:42:51;20.40;;;13.93;;
11522;SDS011;70090;43.208;27.904;2024-03-06T04:45:18;20.20;;;15.17;;
11522;SDS011;70090;43.208;27.904;2024-03-06T04:47:45;19.13;;;13.70;;
11522;SDS011;70090;43.208;27.904;2024-03-06T04:50:12;23.23;;;15.23;;
11522;SDS011;70090;43.208;27.904;2024-03-06T04:52:40;18.97;;;13.90;;
11522;SDS011;70090;43.208;27.904;2024-03-06T04:55:08;20.30;;;13.73;;
11522;SDS011;70090;43.208;27.904;2024-03-06T04:57:38;19.43;;;12.27;;
11522;SDS011;70090;43.208;27.904;2024-03-06T05:00:06;18.67;;;12.90;;
11522;SDS011;70090;43.208;27.904;2024-03-06T05:02:34;17.30;;;12.10;;
11522;SDS011;70090;43.208;27.904;2024-03-06T05:05:02;15.60;;;12.33;;
11522;SDS011;70090;43.208;27.904;2024-03-06T05:07:30;18.27;;;12.47;;
11522;SDS011;70090;43.208;27.904;2024-03-06T05:09:58;20.83;;;12.67;;
11522;SDS011;70090;43.208;27.904;2024-03-06T05:12:26;20.13;;;12.40;;
11522;SDS011;70090;43.208;27.904;2024-03-06T05:14:55;20.07;;;12.70;;
11522;SDS011;70090;43.208;27.904;2024-03-06T05:17:23;18.50;;;12.57;;
11522;SDS011;70090;43.208;27.904;2024-03-06T05:19:50;19.17;;;11.73;;
11522;SDS011;70090;43.208;27.904;2024-03-06T05:22:17;19.20;;;12.83;;
11522;SDS011;70090;43.208;27.904;2024-03-06T05:24:44;20.63;;;13.37;;
11522;SDS011;70090;43.208;27.904;2024-03-06T05:27:11;18.13;;;13.57;;
11522;SDS011;70090;43.208;27.904;2024-03-06T05:29:41;22.20;;;14.07;;
11522;SDS011;70090;43.208;27.904;2024-03-06T05:32:10;21.03;;;14.83;;
11522;SDS011;70090;43.208;27.904;2024-03-06T05:34:37;23.37;;;14.27;;
11522;SDS011;70090;43.208;27.904;2024-03-06T05:37:04;20.33;;;13.60;;
11522;SDS011;70090;43.208;27.904;2024-03-06T05:39:32;24.23;;;14.80;;
11522;SDS011;70090;43.208;27.904;2024-03-06T05:42:02;23.40;;;15.03;;
11522;SDS011;70090;43.208;27.904;2024-03-06T05:44:30;23.37;;;15.37;;
11522;SDS011;70090;43.208;27.904;2024-03-06T05:46:58;22.03;;;15.40;;
11522;SDS011;70090;43.208;27.904;2024-03-06T05:49:27;26.13;;;15.73;;
11522;SDS011;70090;43.208;27.904;2024-03-06T05:51:55;20.63;;;14.10;;
11522;SDS011;70090;43.208;27.904;2024-03-06T05:54:22;23.40;;;15.23;;
11522;SDS011;70090;43.208;27.904;2024-03-06T05:56:50;26.03;;;14.60;;
11522;SDS011;70090;43.208;27.904;2024-03-06T05:59:18;21.17;;;14.33;;
11522;SDS011;70090;43.208;27.904;2024-03-06T06:01:46;19.00;;;14.33;;
11522;SDS011;70090;43.208;27.904;2024-03-06T06:04:13;22.53;;;14.70;;
11522;SDS011;70090;43.208;27.904;2024-03-06T06:06:42;22.50;;;14.60;;
11522;SDS011;70090;43.208;27.904;2024-03-06T06:09:09;20.40;;;13.87;;
11522;SDS011;70090;43.208;27.904;2024-03-06T06:11:41;21.87;;;14.50;;
11522;SDS011;70090;43.208;27.904;2024-03-06T06:14:08;18.53;;;12.80;;
11522;SDS011;70090;43.208;27.904;2024-03-06T06:16:36;19.67;;;12.90;;
11522;SDS011;70090;43.208;27.904;2024-03-06T06:19:03;19.77;;;13.13;;
11522;SDS011;70090;43.208;27.904;2024-03-06T06:21:31;20.37;;;14.73;;
11522;SDS011;70090;43.208;27.904;2024-03-06T06:24:02;22.50;;;12.83;;
11522;SDS011;70090;43.208;27.904;2024-03-06T06:26:30;22.73;;;14.37;;
11522;SDS011;70090;43.208;27.904;2024-03-06T06:28:57;17.77;;;13.33;;
11522;SDS011;70090;43.208;27.904;2024-03-06T06:31:24;18.27;;;12.53;;
11522;SDS011;70090;43.208;27.904;2024-03-06T06:33:52;16.57;;;12.37;;
11522;SDS011;70090;43.208;27.904;2024-03-06T06:36:19;19.87;;;13.93;;
11522;SDS011;70090;43.208;27.904;2024-03-06T06:38:46;19.00;;;11.70;;
11522;SDS011;70090;43.208;27.904;2024-03-06T06:41:15;17.10;;;11.77;;
11522;SDS011;70090;43.208;27.904;2024-03-06T06:43:44;18.30;;;12.43;;
11522;SDS011;70090;43.208;27.904;2024-03-06T06:46:11;20.00;;;12.77;;
11522;SDS011;70090;43.208;27.904;2024-03-06T06:48:39;19.50;;;12.70;;
11522;SDS011;70090;43.208;27.904;2024-03-06T06:51:06;18.63;;;12.30;;
11522;SDS011;70090;43.208;27.904;2024-03-06T06:53:34;15.67;;;11.13;;
11522;SDS011;70090;43.208;27.904;2024-03-06T06:56:01;16.80;;;12.03;;
11522;SDS011;70090;43.208;27.904;2024-03-06T06:58:30;16.93;;;11.63;;
11522;SDS011;70090;43.208;27.904;2024-03-06T07:00:57;20.33;;;13.20;;
11522;SDS011;70090;43.208;27.904;2024-03-06T07:03:25;17.00;;;10.70;;
11522;SDS011;70090;43.208;27.904;2024-03-06T07:05:55;16.60;;;11.80;;
11522;SDS011;70090;43.208;27.904;2024-03-06T07:08:22;17.93;;;12.73;;
11522;SDS011;70090;43.208;27.904;2024-03-06T07:10:50;20.03;;;12.57;;
11522;SDS011;70090;43.208;27.904;2024-03-06T07:13:19;17.73;;;11.93;;
11522;SDS011;70090;43.208;27.904;2024-03-06T07:15:47;23.37;;;13.60;;
11522;SDS011;70090;43.208;27.904;2024-03-06T07:18:14;19.93;;;12.97;;
11522;SDS011;70090;43.208;27.904;2024-03-06T07:20:41;16.07;;;11.00;;
11522;SDS011;70090;43.208;27.904;2024-03-06T07:23:08;14.93;;;11.70;;
11522;SDS011;70090;43.208;27.904;2024-03-06T07:25:35;23.00;;;12.37;;
11522;SDS011;70090;43.208;27.904;2024-03-06T07:28:02;16.67;;;11.17;;
11522;SDS011;70090;43.208;27.904;2024-03-06T07:30:29;16.23;;;11.07;;
11522;SDS011;70090;43.208;27.904;2024-03-06T07:32:58;16.33;;;10.80;;
11522;SDS011;70090;43.208;27.904;2024-03-06T07:35:26;15.50;;;10.97;;
11522;SDS011;70090;43.208;27.904;2024-03-06T07:37:53;15.77;;;10.13;;
11522;SDS011;70090;43.208;27.904;2024-03-06T07:40:20;13.50;;;10.17;;
11522;SDS011;70090;43.208;27.904;2024-03-06T07:42:46;21.00;;;12.70;;
11522;SDS011;70090;43.208;27.904;2024-03-06T07:45:14;14.93;;;11.63;;
11522;SDS011;70090;43.208;27.904;2024-03-06T07:47:41;15.47;;;11.03;;
11522;SDS011;70090;43.208;27.904;2024-03-06T07:50:10;19.50;;;11.43;;
11522;SDS011;70090;43.208;27.904;2024-03-06T07:52:37;17.03;;;10.73;;
11522;SDS011;70090;43.208;27.904;2024-03-06T07:55:05;17.07;;;12.03;;
11522;SDS011;70090;43.208;27.904;2024-03-06T07:57:32;16.87;;;11.63;;
11522;SDS011;70090;43.208;27.904;2024-03-06T07:59:59;17.17;;;11.47;;
11522;SDS011;70090;43.208;27.904;2024-03-06T08:02:26;19.43;;;11.83;;
11522;SDS011;70090;43.208;27.904;2024-03-06T08:04:53;16.30;;;10.57;;
11522;SDS011;70090;43.208;27.904;2024-03-06T08:07:22;16.17;;;10.50;;
11522;SDS011;70090;43.208;27.904;2024-03-06T08:09:49;17.50;;;11.63;;
11522;SDS011;70090;43.208;27.904;2024-03-06T08:12:16;18.20;;;12.23;;
11522;SDS011;70090;43.208;27.904;2024-03-06T08:14:43;23.13;;;13.93;;
11522;SDS011;70090;43.208;27.904;2024-03-06T08:17:10;21.93;;;12.77;;
11522;SDS011;70090;43.208;27.904;2024-03-06T08:19:38;20.17;;;12.27;;
11522;SDS011;70090;43.208;27.904;2024-03-06T08:22:04;20.87;;;12.50;;
11522;SDS011;70090;43.208;27.904;2024-03-06T08:24:33;16.23;;;11.00;;
11522;SDS011;70090;43.208;27.904;2024-03-06T08:27:00;23.17;;;14.70;;
11522;SDS011;70090;43.208;27.904;2024-03-06T08:29:28;19.93;;;13.93;;
11522;SDS011;70090;43.208;27.904;2024-03-06T08:31:55;18.13;;;12.53;;
11522;SDS011;70090;43.208;27.904;2024-03-06T08:34:25;16.47;;;11.60;;
11522;SDS011;70090;43.208;27.904;2024-03-06T08:36:52;17.17;;;11.53;;
11522;SDS011;70090;43.208;27.904;2024-03-06T08:39:20;15.17;;;11.53;;
11522;SDS011;70090;43.208;27.904;2024-03-06T08:41:49;21.70;;;13.10;;
11522;SDS011;70090;43.208;27.904;2024-03-06T08:44:16;19.17;;;11.70;;
11522;SDS011;70090;43.208;27.904;2024-03-06T08:46:43;24.43;;;12.57;;
11522;SDS011;70090;43.208;27.904;2024-03-06T08:49:10;17.53;;;11.30;;
11522;SDS011;70090;43.208;27.904;2024-03-06T08:51:38;16.23;;;11.63;;
11522;SDS011;70090;43.208;27.904;2024-03-06T08:54:05;14.67;;;10.03;;
11522;SDS011;70090;43.208;27.904;2024-03-06T08:56:35;15.93;;;10.13;;
11522;SDS011;70090;43.208;27.904;2024-03-06T08:59:03;18.07;;;11.23;;
11522;SDS011;70090;43.208;27.904;2024-03-06T09:01:30;15.20;;;10.03;;
11522;SDS011;70090;43.208;27.904;2024-03-06T09:03:58;16.70;;;11.23;;
11522;SDS011;70090;43.208;27.904;2024-03-06T09:06:25;18.70;;;11.40;;
11522;SDS011;70090;43.208;27.904;2024-03-06T09:08:52;19.87;;;11.00;;
11522;SDS011;70090;43.208;27.904;2024-03-06T09:11:19;16.73;;;10.03;;
11522;SDS011;70090;43.208;27.904;2024-03-06T09:13:47;14.70;;;10.23;;
11522;SDS011;70090;43.208;27.904;2024-03-06T09:16:16;13.13;;;9.63;;
11522;SDS011;70090;43.208;27.904;2024-03-06T09:18:43;14.83;;;9.93;;
11522;SDS011;70090;43.208;27.904;2024-03-06T09:21:10;19.40;;;11.63;;
11522;SDS011;70090;43.208;27.904;2024-03-06T09:23:37;18.83;;;12.20;;
11522;SDS011;70090;43.208;27.904;2024-03-06T09:26:04;13.70;;;10.50;;
11522;SDS011;70090;43.208;27.904;2024-03-06T09:28:31;14.47;;;10.50;;
11522;SDS011;70090;43.208;27.904;2024-03-06T09:30:58;16.23;;;10.50;;
11522;SDS011;70090;43.208;27.904;2024-03-06T09:33:27;17.23;;;11.00;;
11522;SDS011;70090;43.208;27.904;2024-03-06T09:35:54;20.93;;;13.10;;
11522;SDS011;70090;43.208;27.904;2024-03-06T09:38:22;19.13;;;12.07;;
11522;SDS011;70090;43.208;27.904;2024-03-06T09:40:50;17.23;;;11.00;;
11522;SDS011;70090;43.208;27.904;2024-03-06T09:43:17;15.57;;;10.53;;
11522;SDS011;70090;43.208;27.904;2024-03-06T09:45:45;16.10;;;10.13;;
11522;SDS011;70090;43.208;27.904;2024-03-06T09:48:15;14.63;;;10.90;;
11522;SDS011;70090;43.208;27.904;2024-03-06T09:50:46;16.33;;;10.97;;
11522;SDS011;70090;43.208;27.904;2024-03-06T09:53:15;17.50;;;11.70;;
11522;SDS011;70090;43.208;27.904;2024-03-06T09:55:44;16.77;;;11.27;;
11522;SDS011;70090;43.208;27.904;2024-03-06T09:58:13;20.13;;;12.37;;
11522;SDS011;70090;43.208;27.904;2024-03-06T10:00:40;18.23;;;11.30;;
11522;SDS011;70090;43.208;27.904;2024-03-06T10:03:08;18.03;;;11.37;;
11522;SDS011;70090;43.208;27.904;2024-03-06T10:05:36;21.60;;;12.63;;
11522;SDS011;70090;43.208;27.904;2024-03-06T10:08:05;17.80;;;12.73;;
11522;SDS011;70090;43.208;27.904;2024-03-06T10:10:32;16.27;;;11.87;;
11522;SDS011;70090;43.208;27.904;2024-03-06T10:12:59;22.00;;;13.30;;
11522;SDS011;70090;43.208;27.904;2024-03-06T10:15:27;17.47;;;13.07;;
11522;SDS011;70090;43.208;27.904;2024-03-06T10:20:37;15.70;;;11.70;;
11522;SDS011;70090;43.208;27.904;2024-03-06T10:23:05;15.63;;;11.13;;
11522;SDS011;70090;43.208;27.904;2024-03-06T10:25:34;18.03;;;12.23;;
11522;SDS011;70090;43.208;27.904;2024-03-06T10:28:04;18.00;;;12.70;;
11522;SDS011;70090;43.208;27.904;2024-03-06T10:30:33;16.23;;;12.23;;
11522;SDS011;70090;43.208;27.904;2024-03-06T10:33:01;18.53;;;12.37;;
11522;SDS011;70090;43.208;27.904;2024-03-06T10:35:29;17.93;;;12.33;;
11522;SDS011;70090;43.208;27.904;2024-03-06T10:37:56;16.00;;;11.80;;
11522;SDS011;70090;43.208;27.904;2024-03-06T10:40:28;19.90;;;12.80;;
11522;SDS011;70090;43.208;27.904;2024-03-06T10:42:58;20.67;;;14.77;;
11522;SDS011;70090;43.208;27.904;2024-03-06T10:45:39;19.37;;;12.87;;
11522;SDS011;70090;43.208;27.904;2024-03-06T10:48:09;20.70;;;13.73;;
11522;SDS011;70090;43.208;27.904;2024-03-06T10:50:38;23.47;;;14.00;;
11522;SDS011;70090;43.208;27.904;2024-03-06T10:53:09;16.57;;;11.47;;
11522;SDS011;70090;43.208;27.904;2024-03-06T10:55:38;20.17;;;13.63;;
11522;SDS011;70090;43.208;27.904;2024-03-06T10:58:05;21.07;;;15.03;;
11522;SDS011;70090;43.208;27.904;2024-03-06T11:00:35;15.90;;;11.17;;
11522;SDS011;70090;43.208;27.904;2024-03-06T11:03:04;18.83;;;13.10;;
11522;SDS011;70090;43.208;27.904;2024-03-06T11:05:34;19.10;;;13.97;;
11522;SDS011;70090;43.208;27.904;2024-03-06T11:08:04;19.17;;;13.10;;
11522;SDS011;70090;43.208;27.904;2024-03-06T11:10:33;16.73;;;12.67;;
11522;SDS011;70090;43.208;27.904;2024-03-06T11:13:02;22.07;;;14.73;;
11522;SDS011;70090;43.208;27.904;2024-03-06T11:15:30;24.03;;;14.00;;
11522;SDS011;70090;43.208;27.904;2024-03-06T11:17:57;22.73;;;15.53;;
11522;SDS011;70090;43.208;27.904;2024-03-06T11:20:24;22.27;;;14.50;;
11522;SDS011;70090;43.208;27.904;2024-03-06T11:23:07;24.13;;;14.53;;
11522;SDS011;70090;43.208;27.904;2024-03-06T11:28:38;28.03;;;17.60;;
11522;SDS011;70090;43.208;27.904;2024-03-06T11:31:15;21.80;;;13.47;;
11522;SDS011;70090;43.208;27.904;2024-03-06T11:33:45;26.53;;;15.40;;
11522;SDS011;70090;43.208;27.904;2024-03-06T11:36:17;22.07;;;14.87;;
11522;SDS011;70090;43.208;27.904;2024-03-06T11:38:47;25.83;;;17.27;;
11522;SDS011;70090;43.208;27.904;2024-03-06T11:41:14;19.67;;;13.90;;
11522;SDS011;70090;43.208;27.904;2024-03-06T11:43:44;22.13;;;14.80;;
11522;SDS011;70090;43.208;27.904;2024-03-06T11:46:11;26.03;;;16.57;;
11522;SDS011;70090;43.208;27.904;2024-03-06T11:48:38;18.10;;;12.93;;
11522;SDS011;70090;43.208;27.904;2024-03-06T11:51:06;24.83;;;16.83;;
11522;SDS011;70090;43.208;27.904;2024-03-06T11:53:33;24.33;;;16.37;;
11522;SDS011;70090;43.208;27.904;2024-03-06T11:56:01;20.73;;;15.87;;
11522;SDS011;70090;43.208;27.904;2024-03-06T11:58:32;25.37;;;16.50;;
11522;SDS011;70090;43.208;27.904;2024-03-06T12:01:01;27.67;;;17.63;;
11522;SDS011;70090;43.208;27.904;2024-03-06T12:03:29;23.50;;;15.07;;
11522;SDS011;70090;43.208;27.904;2024-03-06T12:05:57;23.83;;;14.50;;
11522;SDS011;70090;43.208;27.904;2024-03-06T12:08:25;31.30;;;20.00;;
11522;SDS011;70090;43.208;27.904;2024-03-06T12:10:52;21.73;;;15.60;;
11522;SDS011;70090;43.208;27.904;2024-03-06T12:13:20;18.77;;;14.00;;
11522;SDS011;70090;43.208;27.904;2024-03-06T12:15:47;17.70;;;14.07;;
11522;SDS011;70090;43.208;27.904;2024-03-06T12:18:17;22.23;;;15.17;;
11522;SDS011;70090;43.208;27.904;2024-03-06T12:20:45;27.27;;;16.93;;
11522;SDS011;70090;43.208;27.904;2024-03-06T12:23:21;20.37;;;14.97;;
11522;SDS011;70090;43.208;27.904;2024-03-06T12:25:48;29.33;;;16.43;;
11522;SDS011;70090;43.208;27.904;2024-03-06T12:28:15;20.00;;;14.43;;
11522;SDS011;70090;43.208;27.904;2024-03-06T12:30:43;21.47;;;15.83;;
11522;SDS011;70090;43.208;27.904;2024-03-06T12:33:10;22.90;;;14.97;;
11522;SDS011;70090;43.208;27.904;2024-03-06T12:35:41;19.83;;;13.20;;
11522;SDS011;70090;43.208;27.904;2024-03-06T12:38:12;19.97;;;13.47;;
11522;SDS011;70090;43.208;27.904;2024-03-06T12:40:40;20.97;;;13.30;;
11522;SDS011;70090;43.208;27.904;2024-03-06T12:43:07;19.60;;;12.50;;
11522;SDS011;70090;43.208;27.904;2024-03-06T12:45:34;17.13;;;13.43;;
11522;SDS011;70090;43.208;27.904;2024-03-06T12:48:02;18.47;;;13.03;;
11522;SDS011;70090;43.208;27.904;2024-03-06T12:50:31;21.23;;;12.20;;
11522;SDS011;70090;43.208;27.904;2024-03-06T12:52:59;20.73;;;12.47;;
11522;SDS011;70090;43.208;27.904;2024-03-06T12:55:29;20.33;;;13.40;;
11522;SDS011;70090;43.208;27.904;2024-03-06T12:57:57;17.83;;;14.03;;
11522;SDS011;70090;43.208;27.904;2024-03-06T13:00:24;20.80;;;14.77;;
11522;SDS011;70090;43.208;27.904;2024-03-06T13:02:51;21.47;;;15.67;;
11522;SDS011;70090;43.208;27.904;2024-03-06T13:05:18;21.10;;;16.20;;
11522;SDS011;70090;43.208;27.904;2024-03-06T13:07:45;23.23;;;16.27;;
11522;SDS011;70090;43.208;27.904;2024-03-06T13:10:14;23.00;;;16.20;;
11522;SDS011;70090;43.208;27.904;2024-03-06T13:12:41;25.93;;;17.27;;
11522;SDS011;70090;43.208;27.904;2024-03-06T13:15:08;23.80;;;16.00;;
11522;SDS011;70090;43.208;27.904;2024-03-06T13:17:35;28.83;;;17.60;;
11522;SDS011;70090;43.208;27.904;2024-03-06T13:20:03;22.07;;;16.43;;
11522;SDS011;70090;43.208;27.904;2024-03-06T13:22:34;24.27;;;17.87;;
11522;SDS011;70090;43.208;27.904;2024-03-06T13:25:01;22.00;;;15.70;;
11522;SDS011;70090;43.208;27.904;2024-03-06T13:27:30;21.10;;;16.50;;
11522;SDS011;70090;43.208;27.904;2024-03-06T13:29:57;22.10;;;15.23;;
11522;SDS011;70090;43.208;27.904;2024-03-06T13:32:24;23.17;;;15.37;;
11522;SDS011;70090;43.208;27.904;2024-03-06T13:34:51;21.67;;;16.20;;
11522;SDS011;70090;43.208;27.904;2024-03-06T13:37:18;25.00;;;16.47;;
11522;SDS011;70090;43.208;27.904;2024-03-06T13:39:47;24.50;;;16.50;;
11522;SDS011;70090;43.208;27.904;2024-03-06T13:42:14;23.37;;;16.53;;
11522;SDS011;70090;43.208;27.904;2024-03-06T13:44:43;23.50;;;16.30;;
11522;SDS011;70090;43.208;27.904;2024-03-06T13:47:14;28.50;;;17.37;;
11522;SDS011;70090;43.208;27.904;2024-03-06T13:49:42;24.47;;;15.80;;
11522;SDS011;70090;43.208;27.904;2024-03-06T13:52:09;28.67;;;15.90;;
11522;SDS011;70090;43.208;27.904;2024-03-06T13:54:38;26.80;;;17.00;;
11522;SDS011;70090;43.208;27.904;2024-03-06T13:57:06;23.53;;;16.13;;
11522;SDS011;70090;43.208;27.904;2024-03-06T13:59:34;22.73;;;16.50;;
11522;SDS011;70090;43.208;27.904;2024-03-06T14:02:04;22.60;;;16.60;;
11522;SDS011;70090;43.208;27.904;2024-03-06T14:04:32;25.20;;;16.80;;
11522;SDS011;70090;43.208;27.904;2024-03-06T14:06:59;22.03;;;15.77;;
11522;SDS011;70090;43.208;27.904;2024-03-06T14:09:26;24.77;;;16.27;;
11522;SDS011;70090;43.208;27.904;2024-03-06T14:11:54;23.10;;;15.83;;
11522;SDS011;70090;43.208;27.904;2024-03-06T14:14:22;24.20;;;16.47;;
11522;SDS011;70090;43.208;27.904;2024-03-06T14:16:49;24.90;;;16.30;;
11522;SDS011;70090;43.208;27.904;2024-03-06T14:19:17;24.23;;;16.87;;
11522;SDS011;70090;43.208;27.904;2024-03-06T14:21:46;24.23;;;16.43;;